地図

経路データ

SID SEASON NUMBER BASIN SUBBASIN NAME ISO_TIME NATURE LAT LON WMO_WIND WMO_PRES WMO_AGENCY TRACK_TYPE DIST2LAND LANDFALL IFLAG USA_AGENCY USA_ATCF_ID USA_LAT USA_LON USA_RECORD USA_STATUS USA_WIND USA_PRES USA_SSHS USA_R34_NE USA_R34_SE USA_R34_SW USA_R34_NW USA_R50_NE USA_R50_SE USA_R50_SW USA_R50_NW USA_R64_NE USA_R64_SE USA_R64_SW USA_R64_NW USA_POCI USA_ROCI USA_RMW USA_EYE TOKYO_LAT TOKYO_LON TOKYO_GRADE TOKYO_WIND TOKYO_PRES TOKYO_R50_DIR TOKYO_R50_LONG TOKYO_R50_SHORT TOKYO_R30_DIR TOKYO_R30_LONG TOKYO_R30_SHORT TOKYO_LAND CMA_LAT CMA_LON CMA_CAT CMA_WIND CMA_PRES HKO_LAT HKO_LON HKO_CAT HKO_WIND HKO_PRES NEWDELHI_LAT NEWDELHI_LON NEWDELHI_GRADE NEWDELHI_WIND NEWDELHI_PRES NEWDELHI_CI NEWDELHI_DP NEWDELHI_POCI REUNION_LAT REUNION_LON REUNION_TYPE REUNION_WIND REUNION_PRES REUNION_TNUM REUNION_CI REUNION_RMW REUNION_R34_NE REUNION_R34_SE REUNION_R34_SW REUNION_R34_NW REUNION_R50_NE REUNION_R50_SE REUNION_R50_SW REUNION_R50_NW REUNION_R64_NE REUNION_R64_SE REUNION_R64_SW REUNION_R64_NW BOM_LAT BOM_LON BOM_TYPE BOM_WIND BOM_PRES BOM_TNUM BOM_CI BOM_RMW BOM_R34_NE BOM_R34_SE BOM_R34_SW BOM_R34_NW BOM_R50_NE BOM_R50_SE BOM_R50_SW BOM_R50_NW BOM_R64_NE BOM_R64_SE BOM_R64_SW BOM_R64_NW BOM_ROCI BOM_POCI BOM_EYE BOM_POS_METHOD BOM_PRES_METHOD NADI_LAT NADI_LON NADI_CAT NADI_WIND NADI_PRES WELLINGTON_LAT WELLINGTON_LON WELLINGTON_WIND WELLINGTON_PRES DS824_LAT DS824_LON DS824_STAGE DS824_WIND DS824_PRES TD9636_LAT TD9636_LON TD9636_STAGE TD9636_WIND TD9636_PRES TD9635_LAT TD9635_LON TD9635_WIND TD9635_PRES TD9635_ROCI NEUMANN_LAT NEUMANN_LON NEUMANN_CLASS NEUMANN_WIND NEUMANN_PRES MLC_LAT MLC_LON MLC_CLASS MLC_WIND MLC_PRES USA_GUST BOM_GUST BOM_GUST_PER REUNION_GUST REUNION_GUST_PER USA_SEAHGT USA_SEARAD_NE USA_SEARAD_SE USA_SEARAD_SW USA_SEARAD_NW STORM_SPEED STORM_DIR
1933214N19089 1933 37 NI BB NOT_NAMED 1933-08-02 00:00:00 TS 19.0000 88.9000 main 272 257 _________O____ -1 19.0000 88.9000 TC 34 4 322
1933214N19089 1933 37 NI BB NOT_NAMED 1933-08-02 03:00:00 TS 19.1567 88.7717 main 251 221 _________PO___ -1 19.2350 88.7075 TC 36 19.0000 88.9000 2 5 322
1933214N19089 1933 37 NI BB NOT_NAMED 1933-08-02 06:00:00 TS 19.4158 88.5592 main 221 175 _________OP___ -1 19.5000 88.5000 TC 39 19.2895 88.6480 2 7 323
1933214N19089 1933 37 NI BB NOT_NAMED 1933-08-02 09:00:00 TS 19.7070 88.3370 main 175 147 _________PP___ -1 19.8075 88.2776 TC 42 19.5731 88.4163 2 7 326
1933214N19089 1933 37 NI BB NOT_NAMED 1933-08-02 12:00:00 TS 19.9725 88.1632 main 147 127 _________OP___ -1 20.1000 88.1000 TC 45 19.8451 88.2264 2 6 333
1933214N19089 1933 37 NI BB NOT_NAMED 1933-08-02 15:00:00 TS 20.2075 88.0637 main 127 109 _________PO___ -1 20.3150 88.0274 TC 45 20.1000 88.1000 3 5 344
1933214N19089 1933 37 NI BB NOT_NAMED 1933-08-02 18:00:00 TS 20.4167 88.0234 main 109 104 _________OP___ -1 20.5000 88.0000 TC 45 20.3334 88.0468 3 4 352
1933214N19089 1933 37 NI BB NOT_NAMED 1933-08-02 21:00:00 TS 20.6260 88.0045 main 104 91 _________PP___ -1 20.7074 87.9799 TC 45 20.5445 88.0291 3 4 351
1933214N19089 1933 37 NI BB NOT_NAMED 1933-08-03 00:00:00 TS 20.8167 87.9484 main 93 78 _________OP___ -1 20.9000 87.9000 TC 45 20.7333 87.9969 3 4 332
1933214N19089 1933 37 NI BB NOT_NAMED 1933-08-03 03:00:00 TS 20.9825 87.7975 main 78 59 _________PO___ -1 21.0650 87.6950 TC 41 20.9000 87.9000 3 5 311
1933214N19089 1933 37 NI BB NOT_NAMED 1933-08-03 06:00:00 TS 21.1291 87.5623 main 59 38 _________OP___ -1 21.2000 87.4000 TC 37 21.0581 87.7247 3 5 300
1933214N19089 1933 37 NI BB NOT_NAMED 1933-08-03 09:00:00 TS 21.2543 87.2874 main 30 0 _________PP___ -1 21.3147 87.1024 TC 33 21.1939 87.4725 3 6 291
1933214N19089 1933 37 NI BB NOT_NAMED 1933-08-03 12:00:00 TS 21.3539 86.9170 main 0 0 _________OP___ -1 21.4000 86.7000 TC 30 21.3077 87.1340 3 8 282
1933214N19089 1933 37 NI BB NOT_NAMED 1933-08-03 15:00:00 TS 21.4288 86.4225 main 0 0 _________PO___ -1 21.4575 86.1449 TC 30 21.4000 86.7000 1 10 277
1933214N19089 1933 37 NI BB NOT_NAMED 1933-08-03 18:00:00 TS 21.4758 85.8378 main 0 0 _________OP___ -1 21.5000 85.5000 TC 30 21.4517 86.1756 1 11 274
1933214N19089 1933 37 NI BB NOT_NAMED 1933-08-03 21:00:00 TS 21.5139 85.2129 main 0 0 _________PP___ -1 21.5422 84.8648 TC 30 21.4855 85.5609 1 12 274
1933214N19089 1933 37 NI BB NOT_NAMED 1933-08-04 00:00:00 TS 21.5632 84.5455 main 0 0 _________OP___ -1 21.6000 84.2000 TC 30 21.5264 84.8909 1 13 275
1933214N19089 1933 37 NI BB NOT_NAMED 1933-08-04 03:00:00 TS 21.6349 83.8499 main 0 0 _________PO___ -1 21.6699 83.4997 TC 30 21.6000 84.2000 1 13 278
1933214N19089 1933 37 NI BB NOT_NAMED 1933-08-04 06:00:00 TS 21.7532 83.1613 main 0 0 _________OP___ -1 21.8000 82.8000 TC 30 21.7065 83.5226 1 13 283
1933214N19089 1933 37 NI BB NOT_NAMED 1933-08-04 09:00:00 TS 21.9324 82.4845 main 0 0 _________PP___ -1 22.0122 82.1349 TC 30 21.8525 82.8341 1 13 289
1933214N19089 1933 37 NI BB NOT_NAMED 1933-08-04 12:00:00 TS 22.1736 81.8267 main 0 0 _________OP___ -1 22.3000 81.5000 TC 30 22.0472 82.1535 1 13 294
1933214N19089 1933 37 NI BB NOT_NAMED 1933-08-04 15:00:00 TS 22.4636 81.1924 main 0 0 _________PO___ -1 22.6273 80.8848 TC 30 22.3000 81.5000 1 13 299
1933214N19089 1933 37 NI BB NOT_NAMED 1933-08-04 18:00:00 TS 22.8105 80.5843 main 0 0 _________OP___ -1 23.0000 80.3000 TC 30 22.6210 80.8686 1 13 304
1933214N19089 1933 37 NI BB NOT_NAMED 1933-08-04 21:00:00 TS 23.1985 79.9943 main 0 0 _________PP___ -1 23.3999 79.7200 TC 30 22.9970 80.2686 1 13 307
1933214N19089 1933 37 NI BB NOT_NAMED 1933-08-05 00:00:00 TS 23.5997 79.4545 main 0 0 _________OP___ -1 23.8000 79.2000 TC 30 23.3994 79.7091 1 12 310
1933214N19089 1933 37 NI BB NOT_NAMED 1933-08-05 03:00:00 TS 23.9786 78.9885 main 0 0 _________PO___ -1 24.1572 78.7770 TC 30 23.8000 79.2000 1 11 312
1933214N19089 1933 37 NI BB NOT_NAMED 1933-08-05 06:00:00 TS 24.3280 78.5741 main 0 0 _________OP___ -1 24.5000 78.4000 TC 30 24.1561 78.7483 1 10 313
1933214N19089 1933 37 NI BB NOT_NAMED 1933-08-05 09:00:00 TS 24.6780 78.1727 main 0 0 _________PP___ -1 24.8499 77.9998 TC 30 24.5061 78.3457 1 10 314
1933214N19089 1933 37 NI AS NOT_NAMED 1933-08-05 12:00:00 TS 25.0266 77.7851 main 0 0 _________OP___ -1 25.2000 77.6000 TC 30 24.8531 77.9703 1 10 315
1933214N19089 1933 37 NI AS NOT_NAMED 1933-08-05 15:00:00 TS 25.3749 77.3999 main 0 0 _________PO___ -1 25.5499 77.1998 TC 30 25.2000 77.6000 1 10 315
1933214N19089 1933 37 NI AS NOT_NAMED 1933-08-05 18:00:00 TS 25.7392 76.9920 main 0 0 _________OP___ -1 25.9000 76.8000 TC 30 25.5784 77.1840 1 10 315
1933214N19089 1933 37 NI AS NOT_NAMED 1933-08-05 21:00:00 TS 26.1125 76.5778 main 0 0 _________PP___ -1 26.2725 76.3851 TC 30 25.9525 76.7706 1 10 314
1933214N19089 1933 37 NI AS NOT_NAMED 1933-08-06 00:00:00 TS 26.4502 76.1858 main 0 0 _________OP___ -1 26.6000 76.0000 TC 30 26.3003 76.3717 1 9 312
1933214N19089 1933 37 NI AS NOT_NAMED 1933-08-06 03:00:00 TS 26.7149 75.8423 main 0 0 _________PO___ -1 26.8298 75.6847 TC 30 26.6000 76.0000 1 7 309
1933214N19089 1933 37 NI AS NOT_NAMED 1933-08-06 06:00:00 TS 26.9144 75.5370 main 0 0 _________OP___ -1 27.0000 75.4000 TC 30 26.8287 75.6741 1 7 304
1933214N19089 1933 37 NI AS NOT_NAMED 1933-08-06 09:00:00 TS 27.0833 75.2379 main 0 0 _________PP___ -1 27.1574 75.0999 TC 30 27.0092 75.3760 1 6 301
1933214N19089 1933 37 NI AS NOT_NAMED 1933-08-06 12:00:00 TS 27.2300 74.9450 main 0 0 _________OP___ -1 27.3000 74.8000 TC 30 27.1601 75.0899 1 6 299
1933214N19089 1933 37 NI AS NOT_NAMED 1933-08-06 15:00:00 TS 27.3749 74.6537 main 0 0 _________PO___ -1 27.4499 74.5074 TC 30 27.3000 74.8000 1 6 299
1933214N19089 1933 37 NI AS NOT_NAMED 1933-08-06 18:00:00 TS 27.5109 74.3677 main 0 0 _________OP___ -1 27.6000 74.2000 TC 30 27.4440 74.4934 1 6 298
1933214N19089 1933 37 NI AS NOT_NAMED 1933-08-06 21:00:00 TS 27.6562 74.0469 main 0 0 _________PP___ -1 27.7502 73.8602 TC 30 27.5934 74.1713 1 6 297
1933214N19089 1933 37 NI AS NOT_NAMED 1933-08-07 00:00:00 TS 27.7974 73.7257 main 0 0 _________OP___ -1 27.9000 73.5000 TC 30 27.7461 73.8386 1 5 297
1933214N19089 1933 37 NI AS NOT_NAMED 1933-08-07 03:00:00 NR 27.9000 73.5000 main 0 __________O___ -1 TC 27.9000 73.5000 1 4 297

IBTrACS Databaseについて

本データベースは、米国NOAAが公開する1842年以降の世界の熱帯低気圧のベストトラックデータアーカイブInternational Best Track Archive for Climate Stewardship (IBTrACS)を、ウェブで閲覧しやすい形式に変換したものです。

最終更新日:2021-10-08